sensor_id;sensor_type;location;lat;lon;timestamp;P1;durP1;ratioP1;P2;durP2;ratioP2
40609;SDS011;26316;55.976;37.140;2022-12-18T00:01:29;7.18;;;6.57;;
40609;SDS011;26316;55.976;37.140;2022-12-18T00:04:00;6.70;;;5.50;;
40609;SDS011;26316;55.976;37.140;2022-12-18T00:06:31;6.47;;;5.88;;
40609;SDS011;26316;55.976;37.140;2022-12-18T00:08:58;6.25;;;5.72;;
40609;SDS011;26316;55.976;37.140;2022-12-18T00:11:26;6.45;;;5.85;;
40609;SDS011;26316;55.976;37.140;2022-12-18T00:13:54;6.40;;;5.90;;
40609;SDS011;26316;55.976;37.140;2022-12-18T00:16:22;6.40;;;5.90;;
40609;SDS011;26316;55.976;37.140;2022-12-18T00:18:49;6.85;;;6.25;;
40609;SDS011;26316;55.976;37.140;2022-12-18T00:21:17;7.32;;;5.57;;
40609;SDS011;26316;55.976;37.140;2022-12-18T00:23:45;6.43;;;5.82;;
40609;SDS011;26316;55.976;37.140;2022-12-18T00:26:13;6.28;;;5.78;;
40609;SDS011;26316;55.976;37.140;2022-12-18T00:29:02;6.78;;;6.18;;
40609;SDS011;26316;55.976;37.140;2022-12-18T00:31:30;6.03;;;5.53;;
40609;SDS011;26316;55.976;37.140;2022-12-18T00:33:56;6.38;;;5.88;;
40609;SDS011;26316;55.976;37.140;2022-12-18T00:36:24;6.43;;;5.93;;
40609;SDS011;26316;55.976;37.140;2022-12-18T00:38:52;6.68;;;6.07;;
40609;SDS011;26316;55.976;37.140;2022-12-18T00:41:18;6.50;;;5.90;;
40609;SDS011;26316;55.976;37.140;2022-12-18T00:44:04;6.68;;;6.18;;
40609;SDS011;26316;55.976;37.140;2022-12-18T00:46:30;5.93;;;5.35;;
40609;SDS011;26316;55.976;37.140;2022-12-18T00:48:56;6.18;;;5.68;;
40609;SDS011;26316;55.976;37.140;2022-12-18T00:51:22;6.60;;;6.05;;
40609;SDS011;26316;55.976;37.140;2022-12-18T00:53:48;6.20;;;5.70;;
40609;SDS011;26316;55.976;37.140;2022-12-18T00:56:13;5.88;;;5.47;;
40609;SDS011;26316;55.976;37.140;2022-12-18T00:58:39;5.95;;;5.45;;
40609;SDS011;26316;55.976;37.140;2022-12-18T01:01:05;6.70;;;6.20;;
40609;SDS011;26316;55.976;37.140;2022-12-18T01:03:33;6.40;;;5.90;;
40609;SDS011;26316;55.976;37.140;2022-12-18T01:05:59;6.28;;;5.68;;
40609;SDS011;26316;55.976;37.140;2022-12-18T01:08:24;6.55;;;5.95;;
40609;SDS011;26316;55.976;37.140;2022-12-18T01:10:50;7.10;;;6.40;;
40609;SDS011;26316;55.976;37.140;2022-12-18T01:13:15;6.88;;;5.50;;
40609;SDS011;26316;55.976;37.140;2022-12-18T01:15:47;8.05;;;6.43;;
40609;SDS011;26316;55.976;37.140;2022-12-18T01:18:14;6.40;;;5.90;;
40609;SDS011;26316;55.976;37.140;2022-12-18T01:20:40;6.10;;;5.60;;
40609;SDS011;26316;55.976;37.140;2022-12-18T01:23:06;8.32;;;6.63;;
40609;SDS011;26316;55.976;37.140;2022-12-18T01:25:33;6.97;;;6.38;;
40609;SDS011;26316;55.976;37.140;2022-12-18T01:28:01;5.82;;;5.43;;
40609;SDS011;26316;55.976;37.140;2022-12-18T01:30:27;6.55;;;5.75;;
40609;SDS011;26316;55.976;37.140;2022-12-18T01:32:52;7.03;;;6.40;;
40609;SDS011;26316;55.976;37.140;2022-12-18T01:35:19;6.75;;;5.93;;
40609;SDS011;26316;55.976;37.140;2022-12-18T01:37:45;6.95;;;6.35;;
40609;SDS011;26316;55.976;37.140;2022-12-18T01:40:11;6.88;;;6.10;;
40609;SDS011;26316;55.976;37.140;2022-12-18T01:42:38;6.70;;;6.07;;
40609;SDS011;26316;55.976;37.140;2022-12-18T01:50:10;6.47;;;5.80;;
40609;SDS011;26316;55.976;37.140;2022-12-18T01:52:38;6.68;;;6.07;;
40609;SDS011;26316;55.976;37.140;2022-12-18T01:55:07;6.70;;;6.10;;
40609;SDS011;26316;55.976;37.140;2022-12-18T01:57:33;6.38;;;5.78;;
40609;SDS011;26316;55.976;37.140;2022-12-18T02:00:03;5.90;;;5.40;;
40609;SDS011;26316;55.976;37.140;2022-12-18T02:02:39;5.85;;;5.35;;
40609;SDS011;26316;55.976;37.140;2022-12-18T02:05:06;6.15;;;5.65;;
40609;SDS011;26316;55.976;37.140;2022-12-18T02:07:40;6.22;;;5.72;;
40609;SDS011;26316;55.976;37.140;2022-12-18T02:12:53;6.45;;;5.68;;
40609;SDS011;26316;55.976;37.140;2022-12-18T02:15:36;6.78;;;6.07;;
40609;SDS011;26316;55.976;37.140;2022-12-18T02:20:44;5.72;;;5.22;;
40609;SDS011;26316;55.976;37.140;2022-12-18T02:28:51;6.13;;;5.38;;
40609;SDS011;26316;55.976;37.140;2022-12-18T02:31:20;5.65;;;5.15;;
40609;SDS011;26316;55.976;37.140;2022-12-18T02:33:48;5.30;;;4.90;;
40609;SDS011;26316;55.976;37.140;2022-12-18T02:36:14;6.28;;;5.57;;
40609;SDS011;26316;55.976;37.140;2022-12-18T02:38:42;5.97;;;5.45;;
40609;SDS011;26316;55.976;37.140;2022-12-18T02:41:11;5.87;;;5.37;;
40609;SDS011;26316;55.976;37.140;2022-12-18T02:43:38;6.35;;;5.75;;
40609;SDS011;26316;55.976;37.140;2022-12-18T02:46:49;6.28;;;5.68;;
40609;SDS011;26316;55.976;37.140;2022-12-18T02:49:11;5.90;;;5.40;;
40609;SDS011;26316;55.976;37.140;2022-12-18T02:52:02;7.50;;;5.57;;
40609;SDS011;26316;55.976;37.140;2022-12-18T02:59:58;5.18;;;4.78;;
40609;SDS011;26316;55.976;37.140;2022-12-18T03:02:27;5.30;;;4.90;;
40609;SDS011;26316;55.976;37.140;2022-12-18T03:07:36;5.43;;;5.00;;
40609;SDS011;26316;55.976;37.140;2022-12-18T03:10:09;5.53;;;5.03;;
40609;SDS011;26316;55.976;37.140;2022-12-18T03:12:40;4.57;;;4.28;;
40609;SDS011;26316;55.976;37.140;2022-12-18T03:17:56;6.43;;;5.30;;
40609;SDS011;26316;55.976;37.140;2022-12-18T03:20:26;6.35;;;5.35;;
40609;SDS011;26316;55.976;37.140;2022-12-18T03:22:57;6.43;;;5.83;;
40609;SDS011;26316;55.976;37.140;2022-12-18T03:25:27;6.00;;;5.40;;
40609;SDS011;26316;55.976;37.140;2022-12-18T03:27:55;5.93;;;5.32;;
40609;SDS011;26316;55.976;37.140;2022-12-18T03:30:22;5.68;;;5.15;;
40609;SDS011;26316;55.976;37.140;2022-12-18T03:32:49;6.00;;;5.50;;
40609;SDS011;26316;55.976;37.140;2022-12-18T03:35:23;6.80;;;6.15;;
40609;SDS011;26316;55.976;37.140;2022-12-18T03:37:53;6.70;;;6.07;;
40609;SDS011;26316;55.976;37.140;2022-12-18T03:40:20;6.63;;;6.03;;
40609;SDS011;26316;55.976;37.140;2022-12-18T03:42:59;6.70;;;6.10;;
40609;SDS011;26316;55.976;37.140;2022-12-18T03:45:33;6.85;;;6.25;;
40609;SDS011;26316;55.976;37.140;2022-12-18T03:53:22;7.35;;;6.75;;
40609;SDS011;26316;55.976;37.140;2022-12-18T03:55:50;7.70;;;6.88;;
40609;SDS011;26316;55.976;37.140;2022-12-18T03:58:17;7.55;;;6.68;;
40609;SDS011;26316;55.976;37.140;2022-12-18T04:00:54;7.97;;;7.28;;
40609;SDS011;26316;55.976;37.140;2022-12-18T04:03:22;7.18;;;6.45;;
40609;SDS011;26316;55.976;37.140;2022-12-18T04:05:48;7.90;;;7.10;;
40609;SDS011;26316;55.976;37.140;2022-12-18T04:08:18;8.43;;;7.70;;
40609;SDS011;26316;55.976;37.140;2022-12-18T04:10:51;8.15;;;7.45;;
40609;SDS011;26316;55.976;37.140;2022-12-18T04:13:24;8.65;;;7.85;;
40609;SDS011;26316;55.976;37.140;2022-12-18T04:15:54;8.30;;;7.40;;
40609;SDS011;26316;55.976;37.140;2022-12-18T04:18:21;8.90;;;7.20;;
40609;SDS011;26316;55.976;37.140;2022-12-18T04:20:47;8.73;;;7.78;;
40609;SDS011;26316;55.976;37.140;2022-12-18T04:23:13;8.18;;;7.47;;
40609;SDS011;26316;55.976;37.140;2022-12-18T04:25:39;8.00;;;7.30;;
40609;SDS011;26316;55.976;37.140;2022-12-18T04:28:11;8.75;;;7.82;;
40609;SDS011;26316;55.976;37.140;2022-12-18T04:30:38;8.20;;;7.40;;
40609;SDS011;26316;55.976;37.140;2022-12-18T04:33:07;8.20;;;7.45;;
40609;SDS011;26316;55.976;37.140;2022-12-18T04:35:38;8.13;;;7.13;;
40609;SDS011;26316;55.976;37.140;2022-12-18T04:38:05;7.88;;;7.18;;
40609;SDS011;26316;55.976;37.140;2022-12-18T04:40:31;8.43;;;7.60;;
40609;SDS011;26316;55.976;37.140;2022-12-18T04:43:02;7.93;;;7.22;;
40609;SDS011;26316;55.976;37.140;2022-12-18T04:45:29;9.93;;;7.75;;
40609;SDS011;26316;55.976;37.140;2022-12-18T04:47:56;8.50;;;7.70;;
40609;SDS011;26316;55.976;37.140;2022-12-18T04:50:24;9.18;;;7.25;;
40609;SDS011;26316;55.976;37.140;2022-12-18T04:52:49;7.63;;;6.95;;
40609;SDS011;26316;55.976;37.140;2022-12-18T04:55:15;7.85;;;7.15;;
40609;SDS011;26316;55.976;37.140;2022-12-18T04:57:41;10.15;;;7.40;;
40609;SDS011;26316;55.976;37.140;2022-12-18T05:00:06;10.18;;;7.47;;
40609;SDS011;26316;55.976;37.140;2022-12-18T05:02:33;7.53;;;6.80;;
40609;SDS011;26316;55.976;37.140;2022-12-18T05:04:58;8.10;;;6.95;;
40609;SDS011;26316;55.976;37.140;2022-12-18T05:07:24;9.75;;;7.25;;
40609;SDS011;26316;55.976;37.140;2022-12-18T05:09:50;7.85;;;7.15;;
40609;SDS011;26316;55.976;37.140;2022-12-18T05:12:15;7.60;;;6.35;;
40609;SDS011;26316;55.976;37.140;2022-12-18T05:14:41;7.22;;;6.63;;
40609;SDS011;26316;55.976;37.140;2022-12-18T05:17:06;8.50;;;6.80;;
40609;SDS011;26316;55.976;37.140;2022-12-18T05:19:32;7.60;;;7.00;;
40609;SDS011;26316;55.976;37.140;2022-12-18T05:21:58;8.68;;;7.28;;
40609;SDS011;26316;55.976;37.140;2022-12-18T05:24:23;7.82;;;7.10;;
40609;SDS011;26316;55.976;37.140;2022-12-18T05:26:49;7.88;;;7.18;;
40609;SDS011;26316;55.976;37.140;2022-12-18T05:29:15;7.60;;;6.90;;
40609;SDS011;26316;55.976;37.140;2022-12-18T05:31:43;8.00;;;7.03;;
40609;SDS011;26316;55.976;37.140;2022-12-18T05:34:08;7.75;;;6.82;;
40609;SDS011;26316;55.976;37.140;2022-12-18T05:36:34;8.25;;;7.22;;
40609;SDS011;26316;55.976;37.140;2022-12-18T05:39:00;7.50;;;6.65;;
40609;SDS011;26316;55.976;37.140;2022-12-18T05:41:26;7.53;;;6.82;;
40609;SDS011;26316;55.976;37.140;2022-12-18T05:43:51;7.30;;;6.55;;
40609;SDS011;26316;55.976;37.140;2022-12-18T05:46:17;7.53;;;6.75;;
40609;SDS011;26316;55.976;37.140;2022-12-18T05:48:43;7.63;;;6.95;;
40609;SDS011;26316;55.976;37.140;2022-12-18T05:51:11;8.20;;;6.88;;
40609;SDS011;26316;55.976;37.140;2022-12-18T05:53:41;7.60;;;6.90;;
40609;SDS011;26316;55.976;37.140;2022-12-18T05:56:09;8.60;;;7.00;;
40609;SDS011;26316;55.976;37.140;2022-12-18T05:58:36;8.07;;;7.28;;
40609;SDS011;26316;55.976;37.140;2022-12-18T06:01:06;7.25;;;6.65;;
40609;SDS011;26316;55.976;37.140;2022-12-18T06:03:33;8.23;;;6.95;;
40609;SDS011;26316;55.976;37.140;2022-12-18T06:05:59;7.65;;;6.95;;
40609;SDS011;26316;55.976;37.140;2022-12-18T06:08:24;7.55;;;6.78;;
40609;SDS011;26316;55.976;37.140;2022-12-18T06:10:50;7.47;;;6.65;;
40609;SDS011;26316;55.976;37.140;2022-12-18T06:13:18;11.73;;;7.82;;
40609;SDS011;26316;55.976;37.140;2022-12-18T06:15:44;8.95;;;8.07;;
40609;SDS011;26316;55.976;37.140;2022-12-18T06:18:09;10.32;;;8.35;;
40609;SDS011;26316;55.976;37.140;2022-12-18T06:20:35;8.25;;;7.47;;
40609;SDS011;26316;55.976;37.140;2022-12-18T06:23:02;8.30;;;7.55;;
40609;SDS011;26316;55.976;37.140;2022-12-18T06:25:28;8.45;;;7.63;;
40609;SDS011;26316;55.976;37.140;2022-12-18T06:27:54;8.05;;;7.25;;
40609;SDS011;26316;55.976;37.140;2022-12-18T06:30:19;8.30;;;7.25;;
40609;SDS011;26316;55.976;37.140;2022-12-18T06:32:45;8.93;;;7.95;;
40609;SDS011;26316;55.976;37.140;2022-12-18T06:35:10;8.48;;;7.57;;
40609;SDS011;26316;55.976;37.140;2022-12-18T06:37:36;8.20;;;7.40;;
40609;SDS011;26316;55.976;37.140;2022-12-18T06:40:02;7.90;;;7.15;;
40609;SDS011;26316;55.976;37.140;2022-12-18T06:42:29;7.82;;;7.03;;
40609;SDS011;26316;55.976;37.140;2022-12-18T06:44:54;7.82;;;7.03;;
40609;SDS011;26316;55.976;37.140;2022-12-18T06:47:20;9.18;;;7.22;;
40609;SDS011;26316;55.976;37.140;2022-12-18T06:49:45;8.05;;;6.95;;
40609;SDS011;26316;55.976;37.140;2022-12-18T06:52:11;7.32;;;6.63;;
40609;SDS011;26316;55.976;37.140;2022-12-18T06:54:37;8.27;;;7.22;;
40609;SDS011;26316;55.976;37.140;2022-12-18T06:57:02;9.52;;;8.07;;
40609;SDS011;26316;55.976;37.140;2022-12-18T06:59:28;7.85;;;7.05;;
40609;SDS011;26316;55.976;37.140;2022-12-18T07:01:54;9.00;;;7.50;;
40609;SDS011;26316;55.976;37.140;2022-12-18T07:04:19;8.75;;;7.85;;
40609;SDS011;26316;55.976;37.140;2022-12-18T07:06:45;7.25;;;6.63;;
40609;SDS011;26316;55.976;37.140;2022-12-18T07:09:11;9.05;;;7.22;;
40609;SDS011;26316;55.976;37.140;2022-12-18T07:11:36;7.90;;;7.10;;
40609;SDS011;26316;55.976;37.140;2022-12-18T07:14:02;10.20;;;8.00;;
40609;SDS011;26316;55.976;37.140;2022-12-18T07:16:28;14.48;;;8.05;;
40609;SDS011;26316;55.976;37.140;2022-12-18T07:18:54;9.55;;;7.88;;
40609;SDS011;26316;55.976;37.140;2022-12-18T07:21:20;8.65;;;7.18;;
40609;SDS011;26316;55.976;37.140;2022-12-18T07:23:46;7.07;;;6.35;;
40609;SDS011;26316;55.976;37.140;2022-12-18T07:26:13;6.53;;;5.93;;
40609;SDS011;26316;55.976;37.140;2022-12-18T07:28:40;7.22;;;6.10;;
40609;SDS011;26316;55.976;37.140;2022-12-18T07:31:07;6.85;;;6.15;;
40609;SDS011;26316;55.976;37.140;2022-12-18T07:33:34;6.28;;;5.68;;
40609;SDS011;26316;55.976;37.140;2022-12-18T07:36:00;5.88;;;5.40;;
40609;SDS011;26316;55.976;37.140;2022-12-18T07:38:28;6.82;;;6.15;;
40609;SDS011;26316;55.976;37.140;2022-12-18T07:40:53;5.88;;;5.40;;
40609;SDS011;26316;55.976;37.140;2022-12-18T07:43:19;6.50;;;5.90;;
40609;SDS011;26316;55.976;37.140;2022-12-18T07:45:45;6.35;;;5.75;;
40609;SDS011;26316;55.976;37.140;2022-12-18T07:48:10;6.47;;;5.88;;
40609;SDS011;26316;55.976;37.140;2022-12-18T07:50:36;6.05;;;5.45;;
40609;SDS011;26316;55.976;37.140;2022-12-18T07:53:02;6.45;;;5.85;;
40609;SDS011;26316;55.976;37.140;2022-12-18T07:55:30;7.47;;;6.00;;
40609;SDS011;26316;55.976;37.140;2022-12-18T07:57:56;6.15;;;5.65;;
40609;SDS011;26316;55.976;37.140;2022-12-18T08:00:22;5.75;;;5.25;;
40609;SDS011;26316;55.976;37.140;2022-12-18T08:02:48;5.70;;;5.20;;
40609;SDS011;26316;55.976;37.140;2022-12-18T08:05:13;6.40;;;5.18;;
40609;SDS011;26316;55.976;37.140;2022-12-18T08:07:39;5.60;;;5.10;;
40609;SDS011;26316;55.976;37.140;2022-12-18T08:10:05;6.38;;;5.78;;
40609;SDS011;26316;55.976;37.140;2022-12-18T08:12:31;5.57;;;5.07;;
40609;SDS011;26316;55.976;37.140;2022-12-18T08:14:57;5.22;;;4.82;;
40609;SDS011;26316;55.976;37.140;2022-12-18T08:17:23;5.40;;;5.00;;
40609;SDS011;26316;55.976;37.140;2022-12-18T08:19:48;5.75;;;5.00;;
40609;SDS011;26316;55.976;37.140;2022-12-18T08:22:14;5.50;;;5.00;;
40609;SDS011;26316;55.976;37.140;2022-12-18T08:24:40;5.28;;;4.78;;
40609;SDS011;26316;55.976;37.140;2022-12-18T08:27:05;5.05;;;4.65;;
40609;SDS011;26316;55.976;37.140;2022-12-18T08:29:31;5.05;;;4.65;;
40609;SDS011;26316;55.976;37.140;2022-12-18T08:31:57;5.78;;;5.18;;
40609;SDS011;26316;55.976;37.140;2022-12-18T08:34:23;5.55;;;5.05;;
40609;SDS011;26316;55.976;37.140;2022-12-18T08:36:48;5.95;;;4.75;;
40609;SDS011;26316;55.976;37.140;2022-12-18T08:39:14;4.60;;;4.30;;
40609;SDS011;26316;55.976;37.140;2022-12-18T08:41:40;7.63;;;5.60;;
40609;SDS011;26316;55.976;37.140;2022-12-18T08:44:07;7.30;;;5.25;;
40609;SDS011;26316;55.976;37.140;2022-12-18T08:46:51;10.48;;;5.93;;
40609;SDS011;26316;55.976;37.140;2022-12-18T08:49:17;8.27;;;5.80;;
40609;SDS011;26316;55.976;37.140;2022-12-18T08:51:43;13.82;;;5.80;;
40609;SDS011;26316;55.976;37.140;2022-12-18T08:54:11;6.55;;;5.82;;
40609;SDS011;26316;55.976;37.140;2022-12-18T08:56:38;6.33;;;5.53;;
40609;SDS011;26316;55.976;37.140;2022-12-18T08:59:03;6.60;;;5.90;;
40609;SDS011;26316;55.976;37.140;2022-12-18T09:01:29;8.10;;;6.05;;
40609;SDS011;26316;55.976;37.140;2022-12-18T09:03:55;6.25;;;5.65;;
40609;SDS011;26316;55.976;37.140;2022-12-18T09:06:21;7.32;;;6.05;;
40609;SDS011;26316;55.976;37.140;2022-12-18T09:08:48;6.10;;;5.53;;
40609;SDS011;26316;55.976;37.140;2022-12-18T09:11:15;6.20;;;5.68;;
40609;SDS011;26316;55.976;37.140;2022-12-18T09:13:44;6.30;;;5.70;;
40609;SDS011;26316;55.976;37.140;2022-12-18T09:16:10;6.07;;;5.55;;
40609;SDS011;26316;55.976;37.140;2022-12-18T09:18:36;5.63;;;5.13;;
40609;SDS011;26316;55.976;37.140;2022-12-18T09:21:08;5.00;;;4.60;;
40609;SDS011;26316;55.976;37.140;2022-12-18T09:23:35;5.78;;;4.97;;
40609;SDS011;26316;55.976;37.140;2022-12-18T09:26:00;5.82;;;5.28;;
40609;SDS011;26316;55.976;37.140;2022-12-18T09:28:26;5.93;;;5.32;;
40609;SDS011;26316;55.976;37.140;2022-12-18T09:30:52;5.50;;;5.10;;
40609;SDS011;26316;55.976;37.140;2022-12-18T09:33:18;5.22;;;4.72;;
40609;SDS011;26316;55.976;37.140;2022-12-18T09:35:44;4.75;;;4.45;;
40609;SDS011;26316;55.976;37.140;2022-12-18T09:38:14;5.20;;;4.80;;
40609;SDS011;26316;55.976;37.140;2022-12-18T09:40:51;4.82;;;4.43;;
40609;SDS011;26316;55.976;37.140;2022-12-18T09:43:20;5.35;;;4.85;;
40609;SDS011;26316;55.976;37.140;2022-12-18T09:45:51;6.05;;;5.45;;
40609;SDS011;26316;55.976;37.140;2022-12-18T09:48:25;5.55;;;5.05;;
40609;SDS011;26316;55.976;37.140;2022-12-18T09:50:54;6.60;;;6.00;;
40609;SDS011;26316;55.976;37.140;2022-12-18T09:53:24;6.60;;;6.03;;
40609;SDS011;26316;55.976;37.140;2022-12-18T09:55:51;5.75;;;5.25;;
40609;SDS011;26316;55.976;37.140;2022-12-18T09:58:33;7.22;;;6.05;;
40609;SDS011;26316;55.976;37.140;2022-12-18T10:01:01;7.38;;;6.57;;
40609;SDS011;26316;55.976;37.140;2022-12-18T10:03:27;5.95;;;5.35;;
40609;SDS011;26316;55.976;37.140;2022-12-18T10:06:06;7.35;;;6.22;;
40609;SDS011;26316;55.976;37.140;2022-12-18T10:16:39;6.20;;;5.63;;
40609;SDS011;26316;55.976;37.140;2022-12-18T10:21:47;8.77;;;5.45;;
40609;SDS011;26316;55.976;37.140;2022-12-18T10:24:38;6.35;;;5.85;;
40609;SDS011;26316;55.976;37.140;2022-12-18T10:27:15;8.02;;;6.45;;
40609;SDS011;26316;55.976;37.140;2022-12-18T10:29:43;5.93;;;5.38;;
40609;SDS011;26316;55.976;37.140;2022-12-18T10:32:16;5.75;;;5.28;;
40609;SDS011;26316;55.976;37.140;2022-12-18T10:34:51;5.13;;;4.70;;
40609;SDS011;26316;55.976;37.140;2022-12-18T10:37:22;5.63;;;5.15;;
40609;SDS011;26316;55.976;37.140;2022-12-18T10:43:04;5.28;;;4.78;;
40609;SDS011;26316;55.976;37.140;2022-12-18T10:45:37;5.15;;;4.75;;
40609;SDS011;26316;55.976;37.140;2022-12-18T10:48:02;4.80;;;4.40;;
40609;SDS011;26316;55.976;37.140;2022-12-18T10:50:30;4.35;;;4.00;;
40609;SDS011;26316;55.976;37.140;2022-12-18T10:53:13;4.57;;;4.25;;
40609;SDS011;26316;55.976;37.140;2022-12-18T10:55:44;4.40;;;4.00;;
40609;SDS011;26316;55.976;37.140;2022-12-18T11:03:40;4.68;;;4.35;;
40609;SDS011;26316;55.976;37.140;2022-12-18T11:06:13;4.70;;;4.25;;
40609;SDS011;26316;55.976;37.140;2022-12-18T11:08:41;5.25;;;4.68;;
40609;SDS011;26316;55.976;37.140;2022-12-18T11:11:21;5.30;;;4.80;;
40609;SDS011;26316;55.976;37.140;2022-12-18T11:14:06;6.28;;;5.40;;
40609;SDS011;26316;55.976;37.140;2022-12-18T11:16:43;5.40;;;4.93;;
40609;SDS011;26316;55.976;37.140;2022-12-18T11:19:13;5.90;;;4.82;;
40609;SDS011;26316;55.976;37.140;2022-12-18T11:21:46;5.07;;;4.63;;
40609;SDS011;26316;55.976;37.140;2022-12-18T11:24:19;5.00;;;4.60;;
40609;SDS011;26316;55.976;37.140;2022-12-18T11:26:47;5.22;;;4.72;;
40609;SDS011;26316;55.976;37.140;2022-12-18T11:29:18;5.78;;;5.18;;
40609;SDS011;26316;55.976;37.140;2022-12-18T11:31:48;4.90;;;4.47;;
40609;SDS011;26316;55.976;37.140;2022-12-18T11:34:19;5.97;;;5.47;;
40609;SDS011;26316;55.976;37.140;2022-12-18T11:36:48;6.00;;;5.40;;
40609;SDS011;26316;55.976;37.140;2022-12-18T11:39:23;5.80;;;4.97;;
40609;SDS011;26316;55.976;37.140;2022-12-18T11:42:27;6.55;;;5.80;;
40609;SDS011;26316;55.976;37.140;2022-12-18T11:45:29;9.45;;;6.30;;
40609;SDS011;26316;55.976;37.140;2022-12-18T11:48:21;7.15;;;6.47;;
40609;SDS011;26316;55.976;37.140;2022-12-18T11:50:51;8.52;;;7.60;;
40609;SDS011;26316;55.976;37.140;2022-12-18T11:53:18;8.80;;;7.88;;
40609;SDS011;26316;55.976;37.140;2022-12-18T11:56:02;9.68;;;8.68;;
40609;SDS011;26316;55.976;37.140;2022-12-18T12:07:20;11.10;;;9.20;;
40609;SDS011;26316;55.976;37.140;2022-12-18T12:09:54;13.23;;;10.43;;
40609;SDS011;26316;55.976;37.140;2022-12-18T12:12:34;13.20;;;10.25;;
40609;SDS011;26316;55.976;37.140;2022-12-18T12:17:54;14.55;;;11.55;;
40609;SDS011;26316;55.976;37.140;2022-12-18T12:26:18;14.32;;;11.82;;
40609;SDS011;26316;55.976;37.140;2022-12-18T12:39:23;19.75;;;14.77;;
40609;SDS011;26316;55.976;37.140;2022-12-18T12:41:56;18.10;;;14.20;;
40609;SDS011;26316;55.976;37.140;2022-12-18T12:44:43;18.17;;;13.88;;
40609;SDS011;26316;55.976;37.140;2022-12-18T12:47:16;19.88;;;15.05;;
40609;SDS011;26316;55.976;37.140;2022-12-18T12:49:46;20.05;;;13.90;;
40609;SDS011;26316;55.976;37.140;2022-12-18T12:52:30;18.85;;;13.98;;
40609;SDS011;26316;55.976;37.140;2022-12-18T12:55:00;19.60;;;13.98;;
40609;SDS011;26316;55.976;37.140;2022-12-18T12:57:33;15.98;;;13.10;;
40609;SDS011;26316;55.976;37.140;2022-12-18T13:00:15;15.27;;;12.63;;
40609;SDS011;26316;55.976;37.140;2022-12-18T13:02:47;14.07;;;10.85;;
40609;SDS011;26316;55.976;37.140;2022-12-18T13:08:13;15.15;;;11.27;;
40609;SDS011;26316;55.976;37.140;2022-12-18T13:10:51;13.00;;;9.80;;
40609;SDS011;26316;55.976;37.140;2022-12-18T13:13:47;11.27;;;9.82;;
40609;SDS011;26316;55.976;37.140;2022-12-18T13:16:13;11.43;;;9.15;;
40609;SDS011;26316;55.976;37.140;2022-12-18T13:18:48;9.55;;;8.63;;
40609;SDS011;26316;55.976;37.140;2022-12-18T13:21:25;9.02;;;8.13;;
40609;SDS011;26316;55.976;37.140;2022-12-18T13:23:54;8.25;;;7.43;;
40609;SDS011;26316;55.976;37.140;2022-12-18T13:28:53;8.80;;;7.25;;
40609;SDS011;26316;55.976;37.140;2022-12-18T13:36:42;7.28;;;6.57;;
40609;SDS011;26316;55.976;37.140;2022-12-18T13:41:40;7.68;;;6.85;;
40609;SDS011;26316;55.976;37.140;2022-12-18T13:44:10;6.82;;;6.22;;
40609;SDS011;26316;55.976;37.140;2022-12-18T13:46:51;7.00;;;6.30;;
40609;SDS011;26316;55.976;37.140;2022-12-18T13:52:23;7.30;;;6.60;;
40609;SDS011;26316;55.976;37.140;2022-12-18T13:54:51;6.75;;;6.10;;
40609;SDS011;26316;55.976;37.140;2022-12-18T13:57:28;6.63;;;6.10;;
40609;SDS011;26316;55.976;37.140;2022-12-18T13:59:54;6.55;;;6.03;;
40609;SDS011;26316;55.976;37.140;2022-12-18T14:02:21;6.47;;;5.88;;
40609;SDS011;26316;55.976;37.140;2022-12-18T14:04:51;6.03;;;5.53;;
40609;SDS011;26316;55.976;37.140;2022-12-18T14:07:18;6.25;;;5.75;;
40609;SDS011;26316;55.976;37.140;2022-12-18T14:09:52;6.28;;;5.78;;
40609;SDS011;26316;55.976;37.140;2022-12-18T14:12:26;5.78;;;5.28;;
40609;SDS011;26316;55.976;37.140;2022-12-18T14:20:41;5.93;;;5.35;;
40609;SDS011;26316;55.976;37.140;2022-12-18T14:23:32;5.65;;;5.15;;
40609;SDS011;26316;55.976;37.140;2022-12-18T14:26:03;5.47;;;4.97;;
40609;SDS011;26316;55.976;37.140;2022-12-18T14:28:45;5.38;;;4.97;;
40609;SDS011;26316;55.976;37.140;2022-12-18T14:31:21;5.95;;;5.45;;
40609;SDS011;26316;55.976;37.140;2022-12-18T14:33:48;5.25;;;4.80;;
40609;SDS011;26316;55.976;37.140;2022-12-18T14:36:15;5.18;;;4.78;;
40609;SDS011;26316;55.976;37.140;2022-12-18T14:38:52;5.85;;;5.35;;
40609;SDS011;26316;55.976;37.140;2022-12-18T14:41:23;5.40;;;4.90;;
40609;SDS011;26316;55.976;37.140;2022-12-18T14:43:50;5.93;;;5.32;;
40609;SDS011;26316;55.976;37.140;2022-12-18T14:46:30;5.68;;;5.18;;
40609;SDS011;26316;55.976;37.140;2022-12-18T14:48:59;5.50;;;5.00;;
40609;SDS011;26316;55.976;37.140;2022-12-18T14:51:30;6.10;;;5.60;;
40609;SDS011;26316;55.976;37.140;2022-12-18T14:54:05;6.05;;;5.55;;
40609;SDS011;26316;55.976;37.140;2022-12-18T14:56:59;5.43;;;5.03;;
40609;SDS011;26316;55.976;37.140;2022-12-18T14:59:30;5.55;;;5.05;;
40609;SDS011;26316;55.976;37.140;2022-12-18T15:04:44;6.75;;;6.07;;
40609;SDS011;26316;55.976;37.140;2022-12-18T15:07:22;6.03;;;5.47;;
40609;SDS011;26316;55.976;37.140;2022-12-18T15:12:35;5.97;;;5.47;;
40609;SDS011;26316;55.976;37.140;2022-12-18T15:15:43;6.72;;;6.10;;
40609;SDS011;26316;55.976;37.140;2022-12-18T15:23:21;6.50;;;5.90;;
40609;SDS011;26316;55.976;37.140;2022-12-18T15:26:00;6.40;;;5.88;;
40609;SDS011;26316;55.976;37.140;2022-12-18T15:36:22;6.55;;;5.95;;
40609;SDS011;26316;55.976;37.140;2022-12-18T15:38:49;6.50;;;5.97;;
40609;SDS011;26316;55.976;37.140;2022-12-18T15:41:16;6.53;;;5.90;;
40609;SDS011;26316;55.976;37.140;2022-12-18T15:43:43;6.25;;;5.75;;
40609;SDS011;26316;55.976;37.140;2022-12-18T15:46:11;7.18;;;6.55;;
40609;SDS011;26316;55.976;37.140;2022-12-18T15:48:43;7.00;;;6.40;;
40609;SDS011;26316;55.976;37.140;2022-12-18T15:51:15;7.25;;;6.55;;
40609;SDS011;26316;55.976;37.140;2022-12-18T15:53:43;7.05;;;6.45;;
40609;SDS011;26316;55.976;37.140;2022-12-18T15:56:12;8.05;;;7.25;;
40609;SDS011;26316;55.976;37.140;2022-12-18T15:58:57;8.05;;;7.25;;
40609;SDS011;26316;55.976;37.140;2022-12-18T16:01:23;7.75;;;7.05;;
40609;SDS011;26316;55.976;37.140;2022-12-18T16:03:51;8.55;;;7.53;;
40609;SDS011;26316;55.976;37.140;2022-12-18T16:06:16;8.25;;;7.47;;
40609;SDS011;26316;55.976;37.140;2022-12-18T16:08:42;8.10;;;7.38;;
40609;SDS011;26316;55.976;37.140;2022-12-18T16:11:11;7.05;;;6.43;;
40609;SDS011;26316;55.976;37.140;2022-12-18T16:13:46;8.27;;;7.28;;
40609;SDS011;26316;55.976;37.140;2022-12-18T16:16:11;7.93;;;7.22;;
40609;SDS011;26316;55.976;37.140;2022-12-18T16:18:37;7.45;;;6.72;;
40609;SDS011;26316;55.976;37.140;2022-12-18T16:21:02;7.50;;;6.80;;
40609;SDS011;26316;55.976;37.140;2022-12-18T16:23:28;7.95;;;7.15;;
40609;SDS011;26316;55.976;37.140;2022-12-18T16:25:54;8.13;;;7.32;;
40609;SDS011;26316;55.976;37.140;2022-12-18T16:28:19;10.95;;;7.53;;
40609;SDS011;26316;55.976;37.140;2022-12-18T16:30:45;8.13;;;7.38;;
40609;SDS011;26316;55.976;37.140;2022-12-18T16:33:11;8.50;;;7.70;;
40609;SDS011;26316;55.976;37.140;2022-12-18T16:35:36;8.95;;;8.07;;
40609;SDS011;26316;55.976;37.140;2022-12-18T16:38:02;8.05;;;7.25;;
40609;SDS011;26316;55.976;37.140;2022-12-18T16:40:28;8.70;;;7.85;;
40609;SDS011;26316;55.976;37.140;2022-12-18T16:42:56;7.70;;;7.00;;
40609;SDS011;26316;55.976;37.140;2022-12-18T16:45:22;9.10;;;8.20;;
40609;SDS011;26316;55.976;37.140;2022-12-18T16:47:48;8.98;;;8.07;;